createdAt,value
2022-11-05T00:02:20.696Z,99489.38
2022-11-05T00:04:41.202Z,99498.31
2022-11-05T00:07:01.922Z,99493.88
2022-11-05T00:09:22.343Z,99498.31
2022-11-05T00:11:44.591Z,99495.31
2022-11-05T00:14:04.890Z,99503.31
2022-11-05T00:16:25.255Z,99493.88
2022-11-05T00:18:27.583Z,99495.91
2022-11-05T00:20:29.445Z,99491.56
2022-11-05T00:22:50.812Z,99488.41
2022-11-05T00:25:11.742Z,99492.25
2022-11-05T00:27:13.611Z,99496.97
2022-11-05T00:29:15.624Z,99487.69
2022-11-05T00:31:17.808Z,99498.53
2022-11-05T00:33:20.137Z,99494.75
2022-11-05T00:35:22.686Z,99497.97
2022-11-05T00:37:24.777Z,99507.41
2022-11-05T00:39:26.700Z,99495.56
2022-11-05T00:41:28.582Z,99491.38
2022-11-05T00:43:49.470Z,99481.47
2022-11-05T00:45:51.359Z,99488.78
2022-11-05T00:48:11.607Z,99472.28
2022-11-05T00:50:14.168Z,99487.16
2022-11-05T00:52:34.938Z,99468.16
2022-11-05T00:54:36.973Z,99478.78
2022-11-05T00:56:39.174Z,99453.50
2022-11-05T00:58:41.033Z,99468.41
2022-11-05T01:00:50.538Z,99475.50
2022-11-05T01:02:53.023Z,99476.16
2022-11-05T01:04:54.955Z,99466.44
2022-11-05T01:06:56.791Z,99464.50
2022-11-05T01:08:58.956Z,99450.84
2022-11-05T01:11:07.435Z,99464.69
2022-11-05T01:13:13.016Z,99464.56
2022-11-05T01:15:16.812Z,99462.03
2022-11-05T01:17:18.625Z,99468.94
2022-11-05T01:19:20.577Z,99468.44
2022-11-05T01:21:22.853Z,99475.53
2022-11-05T01:23:24.881Z,99476.69
2022-11-05T01:25:27.144Z,99480.00
2022-11-05T01:27:29.323Z,99470.13
2022-11-05T01:29:31.187Z,99474.56
2022-11-05T01:31:33.039Z,99478.59
2022-11-05T01:33:35.304Z,99500.09
2022-11-05T01:35:39.184Z,99479.91
2022-11-05T01:37:41.100Z,99491.84
2022-11-05T01:39:43.318Z,99486.38
2022-11-05T01:41:45.171Z,99486.66
2022-11-05T01:44:01.655Z,99491.66
2022-11-05T01:46:03.866Z,99496.34
2022-11-05T01:48:15.377Z,99501.31
2022-11-05T01:50:23.280Z,99498.94
2022-11-05T01:52:27.941Z,99499.81
2022-11-05T01:54:33.419Z,99489.63
2022-11-05T01:56:43.616Z,99511.66
2022-11-05T01:59:02.733Z,99502.59
2022-11-05T02:01:04.640Z,99511.31
2022-11-05T02:03:07.219Z,99515.84
2022-11-05T02:05:09.753Z,99506.78
2022-11-05T02:07:12.917Z,99512.75
2022-11-05T02:09:26.165Z,99507.41
2022-11-05T02:11:29.032Z,99509.00
2022-11-05T02:13:30.941Z,99496.97
2022-11-05T02:16:02.178Z,99505.03
2022-11-05T02:18:18.958Z,99504.66
2022-11-05T02:20:32.684Z,99511.13
2022-11-05T02:23:24.491Z,99511.94
2022-11-05T02:26:11.978Z,99519.63
2022-11-05T02:28:19.916Z,99518.06
2022-11-05T02:30:43.122Z,99517.13
2022-11-05T02:32:52.543Z,99515.66
2022-11-05T02:35:19.291Z,99505.31
2022-11-05T02:37:23.882Z,99504.47
2022-11-05T02:39:28.857Z,99504.00
2022-11-05T02:41:39.991Z,99508.09
2022-11-05T02:44:17.448Z,99512.94
2022-11-05T02:46:31.626Z,99511.59
2022-11-05T02:48:45.326Z,99521.19
2022-11-05T02:50:59.335Z,99517.56
2022-11-05T02:53:12.146Z,99516.63
2022-11-05T02:55:29.704Z,99510.06
2022-11-05T02:57:36.358Z,99528.53
2022-11-05T02:59:38.610Z,99533.13
2022-11-05T03:01:43.961Z,99528.38
2022-11-05T03:03:48.944Z,99541.59
2022-11-05T03:06:28.217Z,99542.19
2022-11-05T03:08:51.526Z,99538.03
2022-11-05T03:11:01.942Z,99528.13
2022-11-05T03:13:20.728Z,99513.50
2022-11-05T03:15:40.824Z,99536.91
2022-11-05T03:18:00.008Z,99532.78
2022-11-05T03:20:12.790Z,99537.56
2022-11-05T03:22:21.809Z,99545.25
2022-11-05T03:24:29.429Z,99542.84
2022-11-05T03:26:36.119Z,99550.38
2022-11-05T03:28:43.133Z,99548.13
2022-11-05T03:30:46.549Z,99552.00
2022-11-05T03:32:57.339Z,99559.84
2022-11-05T03:35:04.110Z,99551.22
2022-11-05T03:37:07.867Z,99554.84
2022-11-05T03:39:17.314Z,99556.44
2022-11-05T03:41:22.000Z,99559.78
2022-11-05T03:43:29.675Z,99545.91
2022-11-05T03:45:37.457Z,99548.13
2022-11-05T03:47:43.171Z,99542.28
2022-11-05T03:50:02.611Z,99559.63
2022-11-05T03:52:09.191Z,99548.72
2022-11-05T03:54:11.186Z,99561.81
2022-11-05T03:56:21.998Z,99561.81
2022-11-05T03:58:24.805Z,99565.03
2022-11-05T04:00:26.815Z,99564.56
2022-11-05T04:02:29.264Z,99567.53
2022-11-05T04:04:31.184Z,99576.75
2022-11-05T04:06:51.299Z,99540.91
2022-11-05T04:09:12.186Z,99590.53
2022-11-05T04:11:32.241Z,99585.63
2022-11-05T04:13:34.193Z,99588.28
2022-11-05T04:15:56.474Z,99596.22
2022-11-05T04:17:59.109Z,99595.63
2022-11-05T04:20:19.734Z,99602.81
2022-11-05T04:22:42.367Z,99584.78
2022-11-05T04:24:44.237Z,99580.44
2022-11-05T04:26:46.105Z,99584.25
2022-11-05T04:29:07.990Z,99603.88
2022-11-05T04:31:09.921Z,99604.41
2022-11-05T04:33:14.793Z,99597.03
2022-11-05T04:35:17.237Z,99597.88
2022-11-05T04:37:19.170Z,99598.88
2022-11-05T04:39:21.550Z,99607.44
2022-11-05T04:41:23.930Z,99598.56
2022-11-05T04:43:25.750Z,99600.63
2022-11-05T04:45:30.035Z,99618.00
2022-11-05T04:47:32.186Z,99614.31
2022-11-05T04:49:34.013Z,99627.66
2022-11-05T04:51:35.887Z,99633.66
2022-11-05T04:53:38.154Z,99635.81
2022-11-05T04:55:40.009Z,99630.41
2022-11-05T04:57:41.915Z,99639.75
2022-11-05T04:59:44.128Z,99637.09
2022-11-05T05:01:46.008Z,99644.47
2022-11-05T05:03:49.643Z,99650.44
2022-11-05T05:05:53.795Z,99651.81
2022-11-05T05:08:00.830Z,99658.72
2022-11-05T05:10:04.605Z,99656.88
2022-11-05T05:12:08.069Z,99645.38
2022-11-05T05:14:10.031Z,99662.41
2022-11-05T05:16:20.266Z,99664.72
2022-11-05T05:18:22.639Z,99667.03
2022-11-05T05:20:43.273Z,99660.22
2022-11-05T05:22:52.050Z,99664.34
2022-11-05T05:24:55.685Z,99661.00
2022-11-05T05:26:57.641Z,99652.22
2022-11-05T05:28:59.528Z,99662.06
2022-11-05T05:31:02.165Z,99658.66
2022-11-05T05:33:04.662Z,99672.44
2022-11-05T05:35:07.081Z,99672.69
2022-11-05T05:37:09.280Z,99663.84
2022-11-05T05:39:11.352Z,99678.56
2022-11-05T05:41:13.374Z,99666.94
2022-11-05T05:43:15.768Z,99683.09
2022-11-05T05:45:17.642Z,99683.31
2022-11-05T05:47:19.571Z,99678.97
2022-11-05T05:49:21.940Z,99682.69
2022-11-05T05:51:23.979Z,99682.81
2022-11-05T05:53:25.806Z,99672.69
2022-11-05T05:55:28.002Z,99688.16
2022-11-05T05:57:29.818Z,99681.38
2022-11-05T05:59:31.684Z,99689.06
2022-11-05T06:01:33.928Z,99688.25
2022-11-05T06:03:35.899Z,99703.09
2022-11-05T06:05:37.693Z,99702.31
2022-11-05T06:07:40.101Z,99681.03
2022-11-05T06:09:42.096Z,99698.16
2022-11-05T06:11:44.184Z,99694.84
2022-11-05T06:13:46.431Z,99709.13
2022-11-05T06:15:48.313Z,99710.25
2022-11-05T06:17:50.171Z,99716.22
2022-11-05T06:19:52.955Z,99711.09
2022-11-05T06:21:54.884Z,99718.97
2022-11-05T06:23:56.749Z,99720.84
2022-11-05T06:26:03.699Z,99724.09
2022-11-05T06:28:05.540Z,99722.94
2022-11-05T06:30:08.106Z,99724.09
2022-11-05T06:32:10.320Z,99725.22
2022-11-05T06:34:14.977Z,99724.53
2022-11-05T06:36:18.743Z,99728.97
2022-11-05T06:38:21.293Z,99722.97
2022-11-05T06:40:23.171Z,99718.59
2022-11-05T06:42:25.520Z,99720.34
2022-11-05T06:44:27.867Z,99732.44
2022-11-05T06:46:29.866Z,99726.06
2022-11-05T06:48:31.918Z,99733.41
2022-11-05T06:50:34.115Z,99721.63
2022-11-05T06:52:40.915Z,99720.47
2022-11-05T06:54:44.164Z,99727.00
2022-11-05T06:56:46.599Z,99722.25
2022-11-05T06:58:48.438Z,99727.88
2022-11-05T07:00:50.339Z,99726.00
2022-11-05T07:02:52.816Z,99733.78
2022-11-05T07:04:54.656Z,99739.88
2022-11-05T07:06:56.581Z,99744.97
2022-11-05T07:08:59.404Z,99740.91
2022-11-05T07:11:01.407Z,99728.00
2022-11-05T07:13:07.727Z,99745.34
2022-11-05T07:15:12.393Z,99747.91
2022-11-05T07:17:14.212Z,99750.28
2022-11-05T07:19:16.069Z,99743.06
2022-11-05T07:21:19.775Z,99726.81
2022-11-05T07:23:21.611Z,99749.50
2022-11-05T07:25:23.411Z,99731.66
2022-11-05T07:27:25.681Z,99745.94
2022-11-05T07:29:27.515Z,99748.69
2022-11-05T07:31:29.355Z,99752.97
2022-11-05T07:33:36.307Z,99751.31
2022-11-05T07:35:38.839Z,99738.00
2022-11-05T07:37:45.700Z,99742.00
2022-11-05T07:39:48.235Z,99757.25
2022-11-05T07:41:52.455Z,99775.88
2022-11-05T07:43:54.286Z,99762.06
2022-11-05T07:45:56.718Z,99757.22
2022-11-05T07:48:00.781Z,99776.13
2022-11-05T07:50:02.651Z,99768.53
2022-11-05T07:52:05.173Z,99768.06
2022-11-05T07:54:07.022Z,99784.88
2022-11-05T07:56:10.463Z,99763.06
2022-11-05T07:58:13.606Z,99789.34
2022-11-05T08:00:18.298Z,99788.19
2022-11-05T08:02:20.440Z,99790.63
2022-11-05T08:04:23.102Z,99801.06
2022-11-05T08:06:25.155Z,99805.34
2022-11-05T08:08:27.052Z,99791.31
2022-11-05T08:10:29.562Z,99803.06
2022-11-05T08:12:32.440Z,99809.50
2022-11-05T08:14:34.352Z,99801.38
2022-11-05T08:16:36.573Z,99824.38
2022-11-05T08:18:38.454Z,99810.22
2022-11-05T08:20:41.335Z,99826.78
2022-11-05T08:22:44.593Z,99817.00
2022-11-05T08:24:46.519Z,99804.88
2022-11-05T08:26:48.407Z,99810.34
2022-11-05T08:28:50.604Z,99804.91
2022-11-05T08:30:54.998Z,99808.38
2022-11-05T08:32:59.143Z,99798.00
2022-11-05T08:35:01.380Z,99798.72
2022-11-05T08:37:03.824Z,99795.69
2022-11-05T08:39:05.867Z,99787.78
2022-11-05T08:41:08.101Z,99816.81
2022-11-05T08:43:12.929Z,99820.50
2022-11-05T08:45:15.180Z,99818.97
2022-11-05T08:47:17.486Z,99822.44
2022-11-05T08:49:19.329Z,99808.28
2022-11-05T08:51:21.246Z,99815.31
2022-11-05T08:53:23.452Z,99792.28
2022-11-05T08:55:25.942Z,99799.63
2022-11-05T08:57:27.802Z,99804.00
2022-11-05T08:59:31.475Z,99817.97
2022-11-05T09:01:34.448Z,99804.25
2022-11-05T09:03:36.565Z,99823.53
2022-11-05T09:05:40.747Z,99831.91
2022-11-05T09:07:42.657Z,99843.78
2022-11-05T09:09:44.519Z,99845.50
2022-11-05T09:12:10.437Z,99847.47
2022-11-05T09:14:08.906Z,99820.06
2022-11-05T09:16:25.664Z,99843.09
2022-11-05T09:18:28.466Z,99851.16
2022-11-05T09:20:30.407Z,99859.34
2022-11-05T09:22:32.310Z,99850.69
2022-11-05T09:24:34.516Z,99862.88
2022-11-05T09:26:36.382Z,99856.09
2022-11-05T09:28:38.325Z,99863.22
2022-11-05T09:30:51.609Z,99861.88
2022-11-05T09:32:54.898Z,99861.19
2022-11-05T09:34:56.876Z,99843.75
2022-11-05T09:36:59.270Z,99854.59
2022-11-05T09:39:01.161Z,99854.47
2022-11-05T09:41:05.886Z,99859.91
2022-11-05T09:43:12.975Z,99862.19
2022-11-05T09:45:24.899Z,99868.16
2022-11-05T09:47:35.103Z,99877.16
2022-11-05T09:49:42.088Z,99878.44
2022-11-05T09:51:44.198Z,99879.00
2022-11-05T09:53:46.885Z,99878.69
2022-11-05T09:55:51.662Z,99884.22
2022-11-05T09:57:59.596Z,99881.41
2022-11-05T10:00:06.420Z,99891.75
2022-11-05T10:02:27.740Z,99881.38
2022-11-05T10:04:33.288Z,99889.16
2022-11-05T10:06:38.702Z,99897.66
2022-11-05T10:08:45.055Z,99891.13
2022-11-05T10:10:51.505Z,99909.63
2022-11-05T10:12:58.774Z,99908.94
2022-11-05T10:15:06.871Z,99916.91
2022-11-05T10:17:15.920Z,99919.50
2022-11-05T10:19:24.720Z,99916.25
2022-11-05T10:21:51.522Z,99929.44
2022-11-05T10:23:49.126Z,99925.66
2022-11-05T10:25:58.371Z,99929.31
2022-11-05T10:28:01.483Z,99923.53
2022-11-05T10:30:04.075Z,99918.00
2022-11-05T10:32:07.396Z,99936.34
2022-11-05T10:34:13.762Z,99924.72
2022-11-05T10:36:39.698Z,99931.34
2022-11-05T10:38:41.591Z,99932.63
2022-11-05T10:41:21.604Z,99935.91
2022-11-05T10:43:30.731Z,99944.94
2022-11-05T10:45:49.394Z,99938.69
2022-11-05T10:48:23.958Z,99939.22
2022-11-05T10:50:28.494Z,99932.06
2022-11-05T10:52:51.952Z,99931.16
2022-11-05T10:54:58.724Z,99930.34
2022-11-05T10:57:00.576Z,99937.94
2022-11-05T10:59:07.972Z,99931.16
2022-11-05T11:01:13.380Z,99912.63
2022-11-05T11:03:40.067Z,99935.19
2022-11-05T11:05:41.968Z,99940.38
2022-11-05T11:07:52.645Z,99920.53
2022-11-05T11:09:54.646Z,99930.59
2022-11-05T11:12:01.891Z,99940.28
2022-11-05T11:14:20.977Z,99932.19
2022-11-05T11:16:26.378Z,99952.78
2022-11-05T11:18:35.882Z,99954.19
2022-11-05T11:20:44.841Z,99952.25
2022-11-05T11:23:02.751Z,99953.69
2022-11-05T11:25:24.421Z,99950.75
2022-11-05T11:27:33.249Z,99941.63
2022-11-05T11:29:41.992Z,99951.06
2022-11-05T11:31:47.213Z,99951.41
2022-11-05T11:33:55.877Z,99953.06
2022-11-05T11:35:58.379Z,99956.53
2022-11-05T11:38:02.184Z,99954.88
2022-11-05T11:40:13.397Z,99963.34
2022-11-05T11:42:39.490Z,99955.38
2022-11-05T11:44:45.635Z,99957.78
2022-11-05T11:46:51.012Z,99947.88
2022-11-05T11:48:53.314Z,99964.13
2022-11-05T11:50:57.171Z,99972.72
2022-11-05T11:53:21.170Z,99970.41
2022-11-05T11:55:23.291Z,99955.19
2022-11-05T11:57:28.334Z,99954.94
2022-11-05T12:00:01.849Z,99962.34
2022-11-05T12:02:05.614Z,99971.91
2022-11-05T12:04:32.606Z,99979.19
2022-11-05T12:06:59.712Z,99981.94
2022-11-05T12:09:12.055Z,99989.88
2022-11-05T12:11:25.643Z,99983.09
2022-11-05T12:13:51.970Z,99996.72
2022-11-05T12:16:08.860Z,99996.38
2022-11-05T12:18:26.152Z,100007.56
2022-11-05T12:20:58.512Z,100005.84
2022-11-05T12:23:19.040Z,100012.53
2022-11-05T12:26:12.103Z,100003.88
2022-11-05T12:29:04.654Z,100006.63
2022-11-05T12:31:29.552Z,99997.19
2022-11-05T12:33:57.713Z,100006.16
2022-11-05T12:36:27.573Z,100012.41
2022-11-05T12:38:32.446Z,99998.09
2022-11-05T12:41:16.414Z,100005.16
2022-11-05T12:43:40.206Z,99989.78
2022-11-05T12:45:54.073Z,99996.81
2022-11-05T12:48:32.795Z,99984.91
2022-11-05T12:50:53.139Z,99996.53
2022-11-05T12:53:39.978Z,99997.56
2022-11-05T12:55:48.523Z,100003.56
2022-11-05T12:57:57.210Z,99988.94
2022-11-05T13:00:11.604Z,100007.97
2022-11-05T13:02:27.012Z,99999.81
2022-11-05T13:04:45.546Z,100000.25
2022-11-05T13:06:53.064Z,100007.16
2022-11-05T13:09:17.574Z,100008.09
2022-11-05T13:11:41.989Z,100010.66
2022-11-05T13:14:11.641Z,99993.50
2022-11-05T13:16:34.329Z,100004.22
2022-11-05T13:18:49.281Z,99995.25
2022-11-05T13:20:53.805Z,99999.94
2022-11-05T13:23:02.039Z,100006.31
2022-11-05T13:25:35.949Z,100014.03
2022-11-05T13:27:44.990Z,100013.91
2022-11-05T13:29:46.810Z,100017.97
2022-11-05T13:32:02.970Z,100019.81
2022-11-05T13:34:11.177Z,100034.22
2022-11-05T13:36:46.378Z,100029.84
2022-11-05T13:39:00.638Z,100032.03
2022-11-05T13:41:27.670Z,100050.47
2022-11-05T13:43:45.540Z,100046.53
2022-11-05T13:46:05.597Z,100045.94
2022-11-05T13:48:30.878Z,100048.03
2022-11-05T13:50:41.506Z,100054.16
2022-11-05T13:53:27.627Z,100058.63
2022-11-05T13:55:48.626Z,100064.78
2022-11-05T13:58:08.839Z,100071.91
2022-11-05T14:00:29.560Z,100064.78
2022-11-05T14:02:56.429Z,100065.56
2022-11-05T14:05:01.738Z,100064.50
2022-11-05T14:07:29.137Z,100073.53
2022-11-05T14:09:35.145Z,100082.16
2022-11-05T14:11:51.465Z,100078.13
2022-11-05T14:13:58.748Z,100083.69
2022-11-05T14:16:10.149Z,100088.28
2022-11-05T14:18:24.306Z,100089.31
2022-11-05T14:20:57.321Z,100094.03
2022-11-05T14:23:17.802Z,100098.19
2022-11-05T14:25:19.738Z,100105.25
2022-11-05T14:27:21.504Z,100107.41
2022-11-05T14:29:24.719Z,100099.69
2022-11-05T14:34:19.406Z,100103.88
2022-11-05T14:36:21.933Z,100118.31
2022-11-05T14:38:27.846Z,100106.59
2022-11-05T14:40:36.400Z,100116.84
2022-11-05T14:42:38.870Z,100117.66
2022-11-05T14:45:13.283Z,100118.31
2022-11-05T14:47:21.770Z,100118.19
2022-11-05T14:49:29.098Z,100107.66
2022-11-05T14:51:33.553Z,100127.84
2022-11-05T14:53:39.861Z,100119.72
2022-11-05T14:55:43.777Z,100110.75
2022-11-05T14:57:47.266Z,100121.22
2022-11-05T14:59:57.835Z,100120.56
2022-11-05T15:02:15.681Z,100133.22
2022-11-05T15:04:17.776Z,100130.72
2022-11-05T15:06:34.046Z,100131.50
2022-11-05T15:08:52.303Z,100115.03
2022-11-05T15:11:02.859Z,100132.78
2022-11-05T15:13:06.566Z,100131.16
2022-11-05T15:15:27.713Z,100139.69
2022-11-05T15:17:33.910Z,100139.22
2022-11-05T15:19:37.678Z,100132.28
2022-11-05T15:21:41.417Z,100126.16
2022-11-05T15:23:47.451Z,100137.63
2022-11-05T15:26:04.678Z,100136.22
2022-11-05T15:28:18.158Z,100139.50
2022-11-05T15:30:22.830Z,100143.63
2022-11-05T15:32:26.634Z,100146.63
2022-11-05T15:34:32.097Z,100154.69
2022-11-05T15:36:33.981Z,100144.38
2022-11-05T15:38:36.130Z,100149.31
2022-11-05T15:40:38.316Z,100152.81
2022-11-05T15:42:40.197Z,100147.00
2022-11-05T15:44:44.258Z,100155.91
2022-11-05T15:46:46.471Z,100162.72
2022-11-05T15:48:53.388Z,100153.22
2022-11-05T15:50:55.489Z,100145.38
2022-11-05T15:53:14.431Z,100150.66
2022-11-05T15:55:24.524Z,100156.38
2022-11-05T15:57:29.606Z,100145.97
2022-11-05T15:59:31.899Z,100143.16
2022-11-05T16:01:36.735Z,100169.66
2022-11-05T16:03:39.642Z,100171.47
2022-11-05T16:05:45.125Z,100173.13
2022-11-05T16:07:48.388Z,100161.97
2022-11-05T16:09:54.969Z,100175.28
2022-11-05T16:12:18.366Z,100173.19
2022-11-05T16:14:20.470Z,100175.47
2022-11-05T16:16:33.910Z,100176.09
2022-11-05T16:18:40.235Z,100176.63
2022-11-05T16:21:10.889Z,100185.94
2022-11-05T16:23:25.571Z,100189.63
2022-11-05T16:25:29.648Z,100188.69
2022-11-05T16:27:31.602Z,100185.03
2022-11-05T16:29:46.335Z,100186.00
2022-11-05T16:31:53.951Z,100174.94
2022-11-05T16:33:57.066Z,100198.97
2022-11-05T16:35:58.920Z,100200.97
2022-11-05T16:38:02.083Z,100210.97
2022-11-05T16:40:20.962Z,100208.94
2022-11-05T16:42:22.749Z,100217.84
2022-11-05T16:44:24.961Z,100225.75
2022-11-05T16:46:30.168Z,100206.56
2022-11-05T16:48:32.025Z,100234.97
2022-11-05T16:50:34.657Z,100208.94
2022-11-05T16:52:36.488Z,100226.88
2022-11-05T16:54:38.937Z,100214.47
2022-11-05T16:56:42.912Z,100230.75
2022-11-05T16:58:47.256Z,100228.94
2022-11-05T17:00:50.953Z,100230.56
2022-11-05T17:02:53.637Z,100241.72
2022-11-05T17:04:55.694Z,100233.53
2022-11-05T17:06:57.647Z,100233.06
2022-11-05T17:08:59.859Z,100233.91
2022-11-05T17:11:01.985Z,100254.22
2022-11-05T17:13:04.672Z,100254.72
2022-11-05T17:15:20.316Z,100257.94
2022-11-05T17:17:22.259Z,100262.78
2022-11-05T17:19:24.094Z,100255.66
2022-11-05T17:21:26.305Z,100265.78
2022-11-05T17:23:28.977Z,100251.59
2022-11-05T17:25:31.570Z,100263.06
2022-11-05T17:27:33.943Z,100277.31
2022-11-05T17:29:35.824Z,100273.56
2022-11-05T17:31:39.974Z,100279.25
2022-11-05T17:33:42.220Z,100281.13
2022-11-05T17:35:44.096Z,100276.13
2022-11-05T17:37:45.955Z,100266.69
2022-11-05T17:39:48.128Z,100281.13
2022-11-05T17:41:50.359Z,100272.84
2022-11-05T17:43:57.358Z,100287.75
2022-11-05T17:46:04.339Z,100271.19
2022-11-05T17:48:08.258Z,100275.84
2022-11-05T17:50:12.063Z,100288.13
2022-11-05T17:52:14.498Z,100282.06
2022-11-05T17:56:32.189Z,100285.72
2022-11-05T17:58:36.859Z,100293.16
2022-11-05T18:00:40.425Z,100294.09
2022-11-05T18:02:42.399Z,100303.06
2022-11-05T18:04:44.641Z,100301.22
2022-11-05T18:06:46.993Z,100293.41
2022-11-05T18:08:49.740Z,100280.97
2022-11-05T18:10:53.275Z,100313.78
2022-11-05T18:12:55.346Z,100308.44
2022-11-05T18:14:57.233Z,100299.88
2022-11-05T18:17:00.374Z,100302.88
2022-11-05T18:19:03.010Z,100313.53
2022-11-05T18:21:04.991Z,100292.47
2022-11-05T18:23:07.205Z,100310.00
2022-11-05T18:25:10.838Z,100302.16
2022-11-05T18:27:13.240Z,100311.41
2022-11-05T18:29:15.547Z,100313.84
2022-11-05T18:31:23.077Z,100310.00
2022-11-05T18:33:25.022Z,100302.88
2022-11-05T18:35:27.720Z,100309.34
2022-11-05T18:37:29.656Z,100318.13
2022-11-05T18:39:31.557Z,100293.66
2022-11-05T18:41:33.772Z,100316.91
2022-11-05T18:43:35.786Z,100314.88
2022-11-05T18:45:37.659Z,100319.47
2022-11-05T18:47:39.930Z,100320.03
2022-11-05T18:49:42.131Z,100322.38
2022-11-05T18:51:43.970Z,100325.91
2022-11-05T18:53:46.223Z,100318.81
2022-11-05T18:55:48.117Z,100329.41
2022-11-05T18:57:50.019Z,100330.69
2022-11-05T18:59:52.194Z,100337.56
2022-11-05T19:01:54.379Z,100324.59
2022-11-05T19:03:57.669Z,100324.59
2022-11-05T19:06:03.217Z,100330.69
2022-11-05T19:08:05.282Z,100339.88
2022-11-05T19:10:07.960Z,100335.81
2022-11-05T19:12:10.149Z,100342.84
2022-11-05T19:14:12.302Z,100334.88
2022-11-05T19:16:23.785Z,100343.78
2022-11-05T19:18:25.984Z,100339.06
2022-11-05T19:20:28.191Z,100339.72
2022-11-05T19:22:30.120Z,100334.44
2022-11-05T19:24:32.377Z,100339.59
2022-11-05T19:26:34.312Z,100342.94
2022-11-05T19:28:36.627Z,100353.03
2022-11-05T19:30:39.023Z,100337.22
2022-11-05T19:32:41.062Z,100354.91
2022-11-05T19:34:43.198Z,100348.50
2022-11-05T19:36:45.627Z,100360.19
2022-11-05T19:38:49.698Z,100352.78
2022-11-05T19:40:52.403Z,100356.31
2022-11-05T19:42:54.609Z,100356.06
2022-11-05T19:44:56.997Z,100366.41
2022-11-05T19:47:02.242Z,100373.31
2022-11-05T19:49:04.695Z,100371.84
2022-11-05T19:51:09.316Z,100377.91
2022-11-05T19:53:11.286Z,100373.53
2022-11-05T19:55:13.538Z,100383.00
2022-11-05T19:57:15.377Z,100390.28
2022-11-05T19:59:17.578Z,100370.31
2022-11-05T20:01:21.595Z,100387.78
2022-11-05T20:03:23.646Z,100378.91
2022-11-05T20:05:25.553Z,100380.34
2022-11-05T20:07:27.962Z,100393.31
2022-11-05T20:09:29.963Z,100394.06
2022-11-05T20:11:32.227Z,100394.19
2022-11-05T20:13:34.760Z,100393.38
2022-11-05T20:15:40.061Z,100376.56
2022-11-05T20:17:41.914Z,100399.41
2022-11-05T20:19:44.183Z,100403.13
2022-11-05T20:21:46.349Z,100394.06
2022-11-05T20:23:48.631Z,100399.22
2022-11-05T20:25:53.719Z,100401.28
2022-11-05T20:27:57.289Z,100397.09
2022-11-05T20:29:59.255Z,100411.06
2022-11-05T20:32:02.494Z,100411.09
2022-11-05T20:34:04.703Z,100391.00
2022-11-05T20:36:09.678Z,100408.00
2022-11-05T20:38:12.028Z,100423.41
2022-11-05T20:40:14.593Z,100397.31
2022-11-05T20:42:16.663Z,100404.13
2022-11-05T20:44:19.304Z,100426.41
2022-11-05T20:46:22.796Z,100427.56
2022-11-05T20:48:24.776Z,100411.34
2022-11-05T20:50:27.060Z,100410.00
2022-11-05T20:52:29.556Z,100426.72
2022-11-05T20:54:31.628Z,100426.91
2022-11-05T20:56:37.185Z,100426.72
2022-11-05T20:58:40.388Z,100427.28
2022-11-05T21:00:49.274Z,100441.00
2022-11-05T21:02:51.635Z,100428.72
2022-11-05T21:04:53.522Z,100438.00
2022-11-05T21:06:55.390Z,100423.56
2022-11-05T21:08:57.756Z,100441.94
2022-11-05T21:11:00.137Z,100435.91
2022-11-05T21:13:01.986Z,100438.06
2022-11-05T21:15:04.782Z,100436.56
2022-11-05T21:17:08.967Z,100436.44
2022-11-05T21:19:10.862Z,100445.72
2022-11-05T21:21:18.406Z,100395.94
2022-11-05T21:23:20.934Z,100424.03
2022-11-05T21:25:22.834Z,100421.59
2022-11-05T21:27:25.105Z,100441.84
2022-11-05T21:29:27.150Z,100432.59
2022-11-05T21:31:29.120Z,100439.25
2022-11-05T21:33:32.174Z,100435.03
2022-11-05T21:35:34.663Z,100437.81
2022-11-05T21:37:36.501Z,100436.00
2022-11-05T21:39:39.210Z,100421.75
2022-11-05T21:41:41.211Z,100452.91
2022-11-05T21:43:43.255Z,100433.66
2022-11-05T21:45:45.786Z,100450.84
2022-11-05T21:47:47.702Z,100441.97
2022-11-05T21:49:49.546Z,100447.50
2022-11-05T21:52:10.974Z,100459.78
2022-11-05T21:54:31.189Z,100451.97
2022-11-05T21:56:51.757Z,100443.81
2022-11-05T21:59:12.600Z,100434.94
2022-11-05T22:01:14.594Z,100452.50
2022-11-05T22:03:16.478Z,100447.28
2022-11-05T22:05:18.718Z,100440.00
2022-11-05T22:07:23.378Z,100447.13
2022-11-05T22:09:26.052Z,100442.06
2022-11-05T22:11:28.124Z,100449.34
2022-11-05T22:13:29.949Z,100439.84
2022-11-05T22:15:31.886Z,100445.16
2022-11-05T22:17:34.084Z,100452.16
2022-11-05T22:19:36.618Z,100447.75
2022-11-05T22:21:38.693Z,100452.81
2022-11-05T22:23:40.948Z,100435.75
2022-11-05T22:25:42.839Z,100449.34
2022-11-05T22:27:44.662Z,100463.50
2022-11-05T22:29:47.283Z,100470.41
2022-11-05T22:31:49.302Z,100475.00
2022-11-05T22:33:51.139Z,100473.41
2022-11-05T22:35:53.339Z,100436.22
2022-11-05T22:37:55.312Z,100477.50
2022-11-05T22:39:57.125Z,100473.28
2022-11-05T22:42:02.040Z,100480.41
2022-11-05T22:44:07.614Z,100469.53
2022-11-05T22:46:12.340Z,100475.03
2022-11-05T22:48:15.210Z,100465.25
2022-11-05T22:50:17.749Z,100478.44
2022-11-05T22:52:19.974Z,100468.25
2022-11-05T22:54:22.174Z,100466.09
2022-11-05T22:56:26.154Z,100475.66
2022-11-05T22:58:28.090Z,100461.13
2022-11-05T23:00:37.579Z,100471.75
2022-11-05T23:02:40.001Z,100473.81
2022-11-05T23:04:42.037Z,100460.63
2022-11-05T23:07:03.188Z,100474.59
2022-11-05T23:09:30.314Z,100474.09
2022-11-05T23:11:41.043Z,100476.16
2022-11-05T23:13:43.504Z,100463.72
2022-11-05T23:16:04.193Z,100486.13
2022-11-05T23:18:24.682Z,100482.88
2022-11-05T23:20:45.530Z,100472.66
2022-11-05T23:23:06.058Z,100485.38
2022-11-05T23:25:10.988Z,100486.38
2022-11-05T23:27:13.212Z,100481.47
2022-11-05T23:29:15.047Z,100486.69
2022-11-05T23:31:35.752Z,100476.75
2022-11-05T23:33:37.974Z,100478.41
2022-11-05T23:35:58.381Z,100487.53
2022-11-05T23:38:19.014Z,100480.41
2022-11-05T23:40:26.859Z,100483.97
2022-11-05T23:42:47.362Z,100471.81
2022-11-05T23:45:13.121Z,100469.06
2022-11-05T23:47:35.086Z,100487.41
2022-11-05T23:49:36.922Z,100484.16
2022-11-05T23:51:38.935Z,100485.97
2022-11-05T23:53:41.575Z,100487.09
2022-11-05T23:55:44.003Z,100479.00
2022-11-05T23:57:45.902Z,100476.72
2022-11-05T23:59:48.165Z,100482.72
